Time;durP1;ratioP1;P1;durP2;ratioP2;P2;SDS_P1;SDS_P2;PMS_P1;PMS_P2;Temp;Humidity;BMP_temperature;BMP_pressure;BME280_temperature;BME280_humidity;BME280_pressure;Samples;Min_cycle;Max_cycle;Signal;HPM_P1;HPM_P2
2024/01/23 00:01:20;;;;;;;8.40;2.07;;;7.90;99.90;;;;;;5002969;28;20304;-48
2024/01/23 00:03:47;;;;;;;11.10;2.10;;;8.00;99.90;;;;;;5028662;28;20211;-46
2024/01/23 00:06:14;;;;;;;8.10;2.53;;;8.00;99.90;;;;;;5029911;28;20199;-49
2024/01/23 00:08:41;;;;;;;7.30;2.10;;;8.00;99.90;;;;;;5023771;28;21005;-51
2024/01/23 00:11:09;;;;;;;12.93;2.23;;;8.00;99.90;;;;;;5030752;28;20234;-46
2024/01/23 00:13:36;;;;;;;15.13;2.37;;;8.00;99.90;;;;;;5029815;28;20272;-47
2024/01/23 00:16:03;;;;;;;10.97;2.73;;;8.00;99.90;;;;;;5007507;28;20619;-51
2024/01/23 00:18:30;;;;;;;13.33;2.20;;;8.00;99.90;;;;;;5027546;28;20207;-46
2024/01/23 00:20:56;;;;;;;13.50;2.63;;;8.00;99.90;;;;;;5041590;28;20219;-48
2024/01/23 00:23:23;;;;;;;9.57;2.10;;;8.10;99.90;;;;;;5019414;28;20195;-47
2024/01/23 00:25:51;;;;;;;12.33;2.80;;;8.00;99.90;;;;;;5038478;28;20192;-48
2024/01/23 00:28:19;;;;;;;8.73;2.57;;;8.00;99.90;;;;;;5036106;28;20273;-47
2024/01/23 00:30:46;;;;;;;11.03;2.33;;;8.00;99.90;;;;;;5021392;28;20379;-46
2024/01/23 00:33:13;;;;;;;9.23;2.33;;;8.00;99.90;;;;;;5037920;28;20257;-48
2024/01/23 00:35:40;;;;;;;10.67;2.13;;;8.00;99.90;;;;;;5031453;28;20203;-46
2024/01/23 00:38:07;;;;;;;11.60;2.27;;;8.00;99.90;;;;;;5032484;28;20279;-49
2024/01/23 00:40:34;;;;;;;10.30;2.27;;;8.00;99.90;;;;;;5036806;28;20273;-51
2024/01/23 00:43:01;;;;;;;16.10;2.40;;;8.00;99.90;;;;;;5035322;28;20180;-46
2024/01/23 00:45:29;;;;;;;9.87;2.50;;;8.00;99.90;;;;;;5034016;28;20195;-47
2024/01/23 00:47:56;;;;;;;9.33;2.17;;;7.90;99.90;;;;;;5004283;28;20243;-47
2024/01/23 00:50:23;;;;;;;13.13;2.73;;;7.90;99.90;;;;;;5032844;28;20223;-49
2024/01/23 00:52:50;;;;;;;11.03;2.50;;;7.90;99.90;;;;;;5034027;28;20226;-52
2024/01/23 00:55:17;;;;;;;15.17;3.03;;;7.90;99.90;;;;;;5032536;28;20218;-46
2024/01/23 00:57:44;;;;;;;4.40;1.73;;;7.90;99.90;;;;;;5036915;28;20198;-47
2024/01/23 01:00:12;;;;;;;3.77;1.27;;;7.30;99.90;;;;;;5037551;28;20237;-50
2024/01/23 01:02:40;;;;;;;3.60;1.23;;;6.70;99.90;;;;;;5009771;28;20227;-49
2024/01/23 01:05:07;;;;;;;5.33;0.97;;;6.40;99.90;;;;;;5035763;28;20195;-47
2024/01/23 01:07:34;;;;;;;4.93;1.50;;;6.20;99.90;;;;;;5041386;28;20226;-47
2024/01/23 01:10:01;;;;;;;6.80;1.73;;;6.10;99.90;;;;;;5033643;28;20227;-48
2024/01/23 01:12:28;;;;;;;7.23;1.43;;;6.00;99.90;;;;;;5035445;28;20211;-47
2024/01/23 01:14:54;;;;;;;6.53;1.20;;;5.90;99.90;;;;;;5048419;28;21029;-48
2024/01/23 01:17:21;;;;;;;11.80;1.57;;;5.90;99.90;;;;;;5047758;28;20195;-48
2024/01/23 01:19:49;;;;;;;8.93;1.70;;;5.80;99.90;;;;;;5015452;28;20629;-48
2024/01/23 01:22:16;;;;;;;9.87;1.73;;;5.80;99.90;;;;;;5039386;28;20263;-51
2024/01/23 01:24:43;;;;;;;12.43;2.17;;;5.80;99.90;;;;;;5041105;28;20713;-46
2024/01/23 01:27:10;;;;;;;7.93;1.77;;;5.80;99.90;;;;;;5024627;28;20279;-47
2024/01/23 01:29:37;;;;;;;9.73;1.87;;;5.70;99.90;;;;;;5041974;28;20242;-49
2024/01/23 01:32:04;;;;;;;6.93;1.43;;;5.70;99.90;;;;;;5044091;28;20248;-48
2024/01/23 01:34:32;;;;;;;11.90;1.80;;;5.70;99.90;;;;;;5013165;28;20216;-47
2024/01/23 01:37:00;;;;;;;10.97;1.87;;;5.70;99.90;;;;;;5038844;28;20261;-51
2024/01/23 01:39:27;;;;;;;14.50;2.07;;;5.70;99.90;;;;;;5045009;28;20825;-48
2024/01/23 01:41:54;;;;;;;11.27;1.73;;;5.70;99.90;;;;;;5032739;28;20257;-50
2024/01/23 01:44:20;;;;;;;8.23;1.53;;;5.80;99.90;;;;;;5037871;28;20197;-50
2024/01/23 01:46:48;;;;;;;11.77;2.00;;;5.80;99.90;;;;;;5030500;28;20283;-50
2024/01/23 01:49:16;;;;;;;6.80;1.80;;;5.80;99.90;;;;;;5037917;28;20271;-47
2024/01/23 01:51:43;;;;;;;3.30;1.63;;;5.90;99.90;;;;;;5009169;28;20199;-46
2024/01/23 01:54:12;;;;;;;9.87;1.70;;;5.90;99.90;;;;;;5044676;28;20922;-47
2024/01/23 01:56:39;;;;;;;10.33;2.03;;;5.90;99.90;;;;;;5031949;28;20277;-47
2024/01/23 01:59:07;;;;;;;10.50;2.10;;;5.90;99.90;;;;;;5019508;28;20188;-48
2024/01/23 02:01:34;;;;;;;11.27;2.07;;;6.00;99.90;;;;;;5041481;28;20187;-46
2024/01/23 02:04:01;;;;;;;11.07;1.83;;;6.10;99.90;;;;;;5036129;28;20802;-48
2024/01/23 02:06:30;;;;;;;10.57;2.40;;;6.10;99.90;;;;;;5013031;28;20242;-49
2024/01/23 02:08:58;;;;;;;12.13;2.23;;;6.10;99.90;;;;;;5030098;28;20198;-50
2024/01/23 02:11:26;;;;;;;10.63;1.97;;;6.20;99.90;;;;;;5042695;28;20199;-50
2024/01/23 02:13:53;;;;;;;11.27;2.20;;;6.20;99.90;;;;;;5030159;28;20703;-46
2024/01/23 02:16:20;;;;;;;12.33;2.03;;;6.30;99.90;;;;;;5046200;28;20535;-49
2024/01/23 02:18:47;;;;;;;6.73;2.07;;;6.30;99.90;;;;;;5042255;28;20199;-48
2024/01/23 02:21:15;;;;;;;9.10;1.67;;;6.30;99.90;;;;;;5004012;28;21257;-51
2024/01/23 02:23:44;;;;;;;18.20;2.80;;;6.30;99.90;;;;;;5029641;28;20340;-47
2024/01/23 02:26:14;;;;;;;14.23;2.47;;;6.40;99.90;;;;;;5029553;28;20898;-48
2024/01/23 02:28:41;;;;;;;8.63;1.97;;;6.40;99.90;;;;;;5035608;28;21104;-49
2024/01/23 02:31:09;;;;;;;12.13;2.20;;;6.40;99.90;;;;;;5019011;28;20230;-49
2024/01/23 02:33:36;;;;;;;13.63;2.17;;;6.40;99.90;;;;;;5029636;28;20215;-50
2024/01/23 02:36:03;;;;;;;9.83;2.33;;;6.40;99.90;;;;;;4999824;28;20216;-47
2024/01/23 02:38:29;;;;;;;10.60;2.20;;;6.40;99.90;;;;;;5037207;28;20207;-49
2024/01/23 02:40:58;;;;;;;10.83;2.17;;;6.40;99.90;;;;;;5037359;28;20255;-45
2024/01/23 02:43:24;;;;;;;7.17;1.50;;;6.30;99.90;;;;;;5039301;28;20199;-49
2024/01/23 02:45:53;;;;;;;8.60;2.13;;;6.30;99.90;;;;;;5027422;28;20261;-50
2024/01/23 02:48:21;;;;;;;7.30;2.53;;;6.30;99.90;;;;;;5033334;28;20200;-51
2024/01/23 02:50:47;;;;;;;11.23;2.20;;;6.30;99.90;;;;;;5039142;28;20223;-50
2024/01/23 02:53:14;;;;;;;6.87;1.90;;;6.30;99.90;;;;;;5005515;28;20850;-50
2024/01/23 02:55:41;;;;;;;9.37;2.67;;;6.30;99.90;;;;;;5034409;28;20211;-48
2024/01/23 02:58:10;;;;;;;16.77;2.50;;;6.30;99.90;;;;;;5029775;28;20180;-52
2024/01/23 03:00:39;;;;;;;11.37;1.70;;;6.30;99.90;;;;;;5044120;28;20215;-49
2024/01/23 03:03:07;;;;;;;7.40;2.37;;;6.20;99.90;;;;;;5031560;28;20309;-47
2024/01/23 03:05:34;;;;;;;9.30;2.37;;;6.30;99.90;;;;;;5042393;28;20191;-49
2024/01/23 03:08:01;;;;;;;9.20;2.30;;;6.30;99.90;;;;;;5002438;28;20269;-47
2024/01/23 03:10:28;;;;;;;12.63;2.83;;;6.30;99.90;;;;;;5039042;28;20305;-50
2024/01/23 03:12:55;;;;;;;9.97;2.03;;;6.30;99.90;;;;;;5031208;28;20256;-49
2024/01/23 03:15:23;;;;;;;10.47;2.13;;;6.30;99.90;;;;;;5046164;28;20201;-49
2024/01/23 03:17:50;;;;;;;10.70;2.17;;;6.30;99.90;;;;;;5029211;28;20203;-50
2024/01/23 03:20:17;;;;;;;14.33;2.90;;;6.30;99.90;;;;;;5040477;28;20222;-47
2024/01/23 03:22:44;;;;;;;12.33;2.37;;;6.30;99.90;;;;;;5024237;28;20286;-50
2024/01/23 03:25:10;;;;;;;9.33;2.60;;;6.30;99.90;;;;;;5011525;28;20972;-48
2024/01/23 03:27:37;;;;;;;10.63;2.37;;;6.30;99.90;;;;;;5032590;28;20196;-50
2024/01/23 03:30:04;;;;;;;8.97;2.20;;;6.30;99.90;;;;;;5025487;28;20234;-47
2024/01/23 03:32:33;;;;;;;7.77;1.90;;;6.30;99.90;;;;;;5022032;28;20196;-48
2024/01/23 03:35:00;;;;;;;12.77;2.60;;;6.40;99.90;;;;;;5009678;28;20216;-52
2024/01/23 03:37:27;;;;;;;10.77;1.97;;;6.40;99.90;;;;;;5030046;28;20224;-47
2024/01/23 03:39:53;;;;;;;11.60;2.17;;;6.40;99.90;;;;;;5009211;28;20233;-48
2024/01/23 03:42:20;;;;;;;16.40;2.70;;;6.40;99.90;;;;;;5034905;28;20199;-48
2024/01/23 03:44:47;;;;;;;10.87;2.30;;;6.40;99.90;;;;;;5028315;28;20203;-46
2024/01/23 03:47:14;;;;;;;12.50;3.57;;;6.50;99.90;;;;;;5026520;28;20214;-49
2024/01/23 03:49:42;;;;;;;8.83;2.27;;;6.50;99.90;;;;;;5035260;28;20580;-47
2024/01/23 03:52:09;;;;;;;11.23;3.23;;;6.50;99.90;;;;;;5045649;28;20203;-50
2024/01/23 03:54:36;;;;;;;10.60;2.77;;;6.50;99.90;;;;;;5010990;28;20215;-47
2024/01/23 03:57:02;;;;;;;18.33;3.17;;;6.50;99.90;;;;;;5021655;28;20941;-47
2024/01/23 03:59:29;;;;;;;13.87;2.57;;;6.50;99.90;;;;;;5040352;28;20227;-47
2024/01/23 04:01:56;;;;;;;11.97;2.73;;;6.50;99.90;;;;;;5037128;28;20328;-48
2024/01/23 04:04:23;;;;;;;14.97;2.70;;;6.50;99.90;;;;;;5033619;28;20203;-47
2024/01/23 04:06:51;;;;;;;12.57;3.13;;;6.50;99.90;;;;;;5038340;28;20199;-50
2024/01/23 04:09:18;;;;;;;12.10;2.53;;;6.60;99.90;;;;;;5042065;28;20211;-48
2024/01/23 04:11:46;;;;;;;14.80;2.77;;;6.60;99.90;;;;;;5003846;28;20211;-48
2024/01/23 04:14:12;;;;;;;22.27;3.53;;;6.60;99.90;;;;;;5018956;28;20848;-46
2024/01/23 04:16:39;;;;;;;20.43;3.10;;;6.60;99.90;;;;;;5037270;28;20293;-47
2024/01/23 04:19:06;;;;;;;13.93;2.90;;;6.60;99.90;;;;;;5033947;28;20199;-48
2024/01/23 04:21:33;;;;;;;17.77;2.90;;;6.60;99.90;;;;;;5037188;28;20339;-46
2024/01/23 04:24:01;;;;;;;16.53;3.00;;;6.60;99.90;;;;;;5029702;28;20195;-48
2024/01/23 04:26:28;;;;;;;18.70;3.03;;;6.60;99.90;;;;;;4998690;28;20262;-48
2024/01/23 04:28:55;;;;;;;15.77;2.83;;;6.60;99.90;;;;;;5033743;28;20196;-47
2024/01/23 04:31:22;;;;;;;11.77;2.33;;;6.60;99.90;;;;;;5033728;28;20601;-47
2024/01/23 04:33:49;;;;;;;15.47;3.43;;;6.60;99.90;;;;;;5011072;28;20224;-50
2024/01/23 04:36:17;;;;;;;10.93;2.90;;;6.60;99.90;;;;;;5035300;28;20219;-46
2024/01/23 04:38:44;;;;;;;11.43;2.97;;;6.70;99.90;;;;;;5035424;28;20641;-49
2024/01/23 04:41:12;;;;;;;14.10;2.90;;;6.70;99.90;;;;;;5011259;28;20227;-51
2024/01/23 04:43:39;;;;;;;9.60;2.30;;;6.70;99.90;;;;;;5034084;28;20241;-47
2024/01/23 04:46:06;;;;;;;16.90;3.97;;;6.70;99.90;;;;;;5040582;28;20282;-48
2024/01/23 04:48:33;;;;;;;13.13;2.80;;;6.70;99.90;;;;;;5038524;28;20200;-51
2024/01/23 04:51:00;;;;;;;11.63;2.80;;;6.70;99.90;;;;;;5041414;28;20280;-49
2024/01/23 04:53:29;;;;;;;15.97;2.87;;;6.70;99.90;;;;;;5040938;28;20193;-52
2024/01/23 04:55:56;;;;;;;19.17;3.17;;;6.70;99.90;;;;;;5035636;28;20196;-52
2024/01/23 04:58:24;;;;;;;16.47;3.00;;;6.70;99.90;;;;;;5014104;28;20207;-49
2024/01/23 05:00:51;;;;;;;13.87;3.03;;;6.70;99.90;;;;;;5037981;28;20292;-45
2024/01/23 05:03:17;;;;;;;15.20;3.93;;;6.70;99.90;;;;;;5043395;28;20223;-47
2024/01/23 05:05:44;;;;;;;11.40;3.27;;;6.70;99.90;;;;;;5039531;28;20231;-47
2024/01/23 05:08:10;;;;;;;15.60;3.17;;;6.70;99.90;;;;;;5040720;28;20932;-47
2024/01/23 05:10:38;;;;;;;11.23;2.67;;;6.70;99.90;;;;;;5042712;28;20208;-48
2024/01/23 05:13:05;;;;;;;15.97;3.27;;;6.70;99.90;;;;;;5013065;28;20380;-48
2024/01/23 05:15:33;;;;;;;13.77;2.20;;;6.70;99.90;;;;;;5032508;28;20260;-46
2024/01/23 05:18:00;;;;;;;15.80;3.13;;;6.70;99.90;;;;;;5040155;28;20257;-49
2024/01/23 05:20:27;;;;;;;22.33;3.47;;;6.70;99.90;;;;;;5019891;28;20228;-49
2024/01/23 05:22:54;;;;;;;15.10;3.00;;;6.70;99.90;;;;;;5031548;28;20706;-47
2024/01/23 05:25:21;;;;;;;13.67;3.87;;;6.60;99.90;;;;;;5030035;28;20582;-48
2024/01/23 05:27:48;;;;;;;14.30;3.07;;;6.60;99.90;;;;;;5032812;28;20253;-47
2024/01/23 05:30:15;;;;;;;14.67;4.33;;;6.60;99.90;;;;;;5011771;28;20219;-46
2024/01/23 05:32:44;;;;;;;11.77;2.97;;;6.60;99.90;;;;;;5029334;28;20382;-48
2024/01/23 05:35:11;;;;;;;20.80;3.13;;;6.60;99.90;;;;;;5032539;28;20224;-45
2024/01/23 05:37:37;;;;;;;14.27;2.83;;;6.60;99.90;;;;;;5017637;28;20208;-47
2024/01/23 05:40:05;;;;;;;15.43;2.90;;;6.60;99.90;;;;;;5040148;28;20629;-46
2024/01/23 05:42:32;;;;;;;15.90;3.10;;;6.60;99.90;;;;;;5039106;28;20192;-47
2024/01/23 05:44:59;;;;;;;17.23;3.53;;;6.60;99.90;;;;;;5014553;28;20211;-47
2024/01/23 05:47:26;;;;;;;13.83;2.80;;;6.50;99.90;;;;;;5036314;28;20211;-47
2024/01/23 05:49:54;;;;;;;17.30;3.63;;;6.50;99.90;;;;;;5038766;28;20322;-47
2024/01/23 05:52:21;;;;;;;15.73;3.23;;;6.40;99.90;;;;;;5028621;28;20208;-45
2024/01/23 05:54:47;;;;;;;18.63;3.10;;;6.40;99.90;;;;;;5037218;28;20816;-47
2024/01/23 05:57:14;;;;;;;11.87;2.93;;;6.40;99.90;;;;;;5037999;28;20241;-45
2024/01/23 05:59:41;;;;;;;15.40;3.67;;;6.40;99.90;;;;;;5036812;28;20301;-46
2024/01/23 06:02:08;;;;;;;15.53;3.43;;;6.40;99.90;;;;;;5034543;28;20215;-47
2024/01/23 06:04:35;;;;;;;18.27;4.50;;;6.40;99.90;;;;;;5036200;28;20185;-49
2024/01/23 06:07:06;;;;;;;16.90;3.97;;;6.40;99.90;;;;;;5040822;28;20209;-46
2024/01/23 06:09:33;;;;;;;18.73;3.43;;;6.40;99.90;;;;;;5024828;28;20219;-46
2024/01/23 06:12:00;;;;;;;19.40;3.17;;;6.40;99.90;;;;;;5034793;28;20241;-47
2024/01/23 06:14:26;;;;;;;21.63;3.30;;;6.30;99.90;;;;;;5031240;28;20683;-47
2024/01/23 06:16:53;;;;;;;29.77;4.13;;;6.30;99.90;;;;;;5013823;28;20222;-47
2024/01/23 06:19:20;;;;;;;20.93;3.53;;;6.30;99.90;;;;;;5039208;28;20216;-49
2024/01/23 06:21:47;;;;;;;16.50;4.00;;;6.40;99.90;;;;;;5034216;28;20196;-47
2024/01/23 06:24:15;;;;;;;23.20;4.27;;;6.40;99.90;;;;;;5031771;28;20191;-48
2024/01/23 06:26:42;;;;;;;23.13;4.10;;;6.40;99.90;;;;;;5039562;28;20237;-47
2024/01/23 06:29:08;;;;;;;22.23;4.77;;;6.50;99.90;;;;;;5036601;28;20695;-50
2024/01/23 06:31:35;;;;;;;25.47;5.10;;;6.50;99.90;;;;;;5007652;28;20229;-47
2024/01/23 06:34:04;;;;;;;22.50;3.53;;;6.50;99.90;;;;;;5038113;28;20322;-48
2024/01/23 06:36:31;;;;;;;12.20;3.23;;;6.50;99.90;;;;;;5034399;28;20207;-48
2024/01/23 06:38:58;;;;;;;17.27;3.73;;;6.50;99.90;;;;;;5035961;28;20199;-48
2024/01/23 06:41:26;;;;;;;21.37;4.10;;;6.60;99.90;;;;;;5023908;28;20199;-47
2024/01/23 06:43:53;;;;;;;17.83;4.20;;;6.60;99.90;;;;;;5037348;28;20229;-50
2024/01/23 06:46:20;;;;;;;28.30;4.50;;;6.70;99.90;;;;;;5005569;28;20286;-46
2024/01/23 06:48:47;;;;;;;22.50;4.03;;;6.70;99.90;;;;;;5037126;28;20191;-47
2024/01/23 06:51:14;;;;;;;24.07;4.63;;;6.70;99.90;;;;;;5033848;28;20220;-48
2024/01/23 06:53:41;;;;;;;20.40;3.87;;;6.70;99.90;;;;;;5032606;28;21200;-48
2024/01/23 06:56:07;;;;;;;25.40;4.97;;;6.80;99.90;;;;;;5014833;28;20308;-50
2024/01/23 06:58:36;;;;;;;24.33;5.00;;;6.80;99.90;;;;;;5030402;28;20199;-50
2024/01/23 07:01:02;;;;;;;23.43;3.57;;;6.80;99.90;;;;;;5032939;28;20492;-49
2024/01/23 07:03:30;;;;;;;21.93;4.37;;;6.90;99.90;;;;;;5012528;28;20200;-50
2024/01/23 07:05:57;;;;;;;21.07;4.47;;;6.90;99.90;;;;;;5030721;28;20194;-47
2024/01/23 07:08:24;;;;;;;26.33;5.03;;;6.90;99.90;;;;;;5030389;28;20196;-48
2024/01/23 07:10:50;;;;;;;20.33;3.90;;;7.00;99.90;;;;;;5019941;28;20199;-46
2024/01/23 07:13:17;;;;;;;22.40;4.23;;;7.00;99.90;;;;;;5039344;28;20258;-48
2024/01/23 07:15:45;;;;;;;22.90;5.07;;;7.00;99.90;;;;;;5032278;28;20269;-49
2024/01/23 07:18:12;;;;;;;25.77;4.97;;;7.10;99.90;;;;;;5014175;28;20203;-48
2024/01/23 07:20:39;;;;;;;23.10;4.63;;;7.10;99.90;;;;;;5036142;28;20277;-49
2024/01/23 07:23:06;;;;;;;27.57;4.73;;;7.10;99.90;;;;;;5026217;28;21467;-45
2024/01/23 07:25:33;;;;;;;16.90;3.93;;;7.10;99.90;;;;;;5034908;28;20187;-52
2024/01/23 07:27:59;;;;;;;16.27;3.83;;;7.10;99.90;;;;;;5027820;28;20256;-46
2024/01/23 07:30:26;;;;;;;31.83;5.00;;;7.20;99.90;;;;;;5039722;28;20207;-50
2024/01/23 07:32:54;;;;;;;32.10;4.53;;;7.20;99.90;;;;;;5010552;28;20230;-45
2024/01/23 07:35:21;;;;;;;18.97;4.07;;;7.30;99.90;;;;;;5026560;28;20375;-44
2024/01/23 07:37:48;;;;;;;23.80;5.07;;;7.30;99.90;;;;;;5026838;28;20196;-46
2024/01/23 07:40:16;;;;;;;20.23;5.07;;;7.30;99.90;;;;;;5038160;28;20277;-45
2024/01/23 07:42:43;;;;;;;24.03;5.20;;;7.30;99.90;;;;;;5025868;28;21374;-50
2024/01/23 07:45:11;;;;;;;26.47;4.80;;;7.30;99.90;;;;;;5033092;28;20192;-45
2024/01/23 07:47:38;;;;;;;22.00;4.43;;;7.30;99.90;;;;;;5007239;28;20277;-48
2024/01/23 07:50:08;;;;;;;27.17;5.93;;;7.30;99.90;;;;;;5027677;28;20227;-45
2024/01/23 07:52:34;;;;;;;27.33;5.53;;;7.30;99.90;;;;;;5034755;28;20206;-48
2024/01/23 07:55:02;;;;;;;21.67;4.13;;;7.30;99.90;;;;;;5028745;28;20208;-47
2024/01/23 07:57:29;;;;;;;32.67;5.67;;;7.30;99.90;;;;;;5038208;28;20192;-52
2024/01/23 07:59:57;;;;;;;22.43;4.90;;;7.30;99.90;;;;;;5030353;28;20207;-48
2024/01/23 08:02:25;;;;;;;28.67;5.13;;;7.30;99.90;;;;;;5034352;28;20690;-49
2024/01/23 08:04:52;;;;;;;31.70;6.17;;;7.30;99.90;;;;;;4983225;28;20200;-50
2024/01/23 08:07:20;;;;;;;24.20;4.40;;;7.30;99.90;;;;;;5028143;28;20261;-50
2024/01/23 08:09:47;;;;;;;27.97;6.30;;;7.30;99.90;;;;;;5034787;28;20281;-47
2024/01/23 08:12:14;;;;;;;26.20;5.83;;;7.30;99.90;;;;;;5031023;28;20206;-49
2024/01/23 08:14:41;;;;;;;27.63;5.10;;;7.30;99.90;;;;;;5031644;28;20287;-47
2024/01/23 08:17:08;;;;;;;30.23;5.70;;;7.30;99.90;;;;;;5031272;28;20644;-47
2024/01/23 08:19:35;;;;;;;26.97;6.03;;;7.30;99.90;;;;;;5002684;28;20280;-47
2024/01/23 08:22:02;;;;;;;28.27;4.77;;;7.30;99.90;;;;;;5034765;28;20195;-49
2024/01/23 08:24:30;;;;;;;23.37;5.63;;;7.30;99.90;;;;;;5037984;28;20425;-51
2024/01/23 08:26:57;;;;;;;31.03;5.13;;;7.30;99.90;;;;;;5025110;28;20204;-49
2024/01/23 08:29:24;;;;;;;23.67;4.43;;;7.40;99.90;;;;;;5023448;28;20228;-49
2024/01/23 08:31:51;;;;;;;38.73;5.80;;;7.40;99.90;;;;;;5039582;28;20283;-48
2024/01/23 08:34:17;;;;;;;23.67;4.83;;;7.40;99.90;;;;;;4996909;28;20265;-48
2024/01/23 08:36:44;;;;;;;23.40;5.20;;;7.40;99.90;;;;;;5047862;28;20268;-48
2024/01/23 08:39:11;;;;;;;24.03;5.27;;;7.40;99.90;;;;;;5035156;28;20656;-47
2024/01/23 08:41:39;;;;;;;27.67;4.93;;;7.40;99.90;;;;;;5038223;28;20542;-50
2024/01/23 08:44:06;;;;;;;21.50;5.17;;;7.40;99.90;;;;;;5031109;28;20249;-48
2024/01/23 08:46:34;;;;;;;21.57;5.27;;;7.40;99.90;;;;;;5044134;28;20191;-48
2024/01/23 08:49:00;;;;;;;28.37;5.33;;;7.40;99.90;;;;;;5034755;28;20211;-52
2024/01/23 08:51:28;;;;;;;31.13;5.70;;;7.50;99.90;;;;;;5011380;28;20303;-55
2024/01/23 08:53:55;;;;;;;26.37;5.40;;;7.50;99.90;;;;;;5042866;28;20199;-51
2024/01/23 08:56:23;;;;;;;31.17;5.37;;;7.50;99.90;;;;;;5033076;28;20243;-50
2024/01/23 08:58:51;;;;;;;29.53;5.73;;;7.50;99.90;;;;;;5037659;28;20199;-48
2024/01/23 09:01:18;;;;;;;30.50;5.63;;;7.50;99.90;;;;;;5022434;28;20235;-47
2024/01/23 09:03:46;;;;;;;31.70;4.50;;;7.50;99.90;;;;;;5036369;28;20192;-49
2024/01/23 09:06:13;;;;;;;27.70;5.13;;;7.50;99.90;;;;;;5002127;28;20783;-48
2024/01/23 09:08:41;;;;;;;21.47;4.77;;;7.60;99.90;;;;;;5041586;28;20607;-46
2024/01/23 09:11:08;;;;;;;24.97;4.43;;;7.60;99.90;;;;;;5031645;28;20277;-49
2024/01/23 09:13:35;;;;;;;30.87;5.50;;;7.60;99.90;;;;;;5035767;28;20204;-52
2024/01/23 09:16:04;;;;;;;24.33;4.80;;;7.60;99.90;;;;;;5024175;28;20718;-46
2024/01/23 09:18:31;;;;;;;21.67;5.53;;;7.60;99.90;;;;;;5041457;28;20204;-47
2024/01/23 09:21:02;;;;;;;17.37;4.57;;;7.60;99.90;;;;;;5041724;28;20222;-48
2024/01/23 09:23:29;;;;;;;28.03;6.93;;;7.60;99.90;;;;;;5003762;28;20203;-47
2024/01/23 09:25:56;;;;;;;26.60;4.83;;;7.70;99.90;;;;;;5043332;28;20183;-44
2024/01/23 09:28:23;;;;;;;29.03;4.73;;;7.70;99.90;;;;;;5032641;28;20222;-48
2024/01/23 09:30:50;;;;;;;22.47;5.03;;;7.70;99.90;;;;;;5043160;28;20251;-49
2024/01/23 09:33:18;;;;;;;23.37;5.37;;;7.70;99.90;;;;;;5028628;28;20195;-49
2024/01/23 09:35:45;;;;;;;23.97;5.30;;;7.70;99.90;;;;;;5030370;28;20219;-47
2024/01/23 09:38:11;;;;;;;28.30;4.87;;;7.70;99.90;;;;;;5008105;28;20203;-48
2024/01/23 09:40:39;;;;;;;18.93;5.10;;;7.70;99.90;;;;;;5040328;28;20281;-49
2024/01/23 09:43:12;;;;;;;20.27;5.30;;;7.70;99.90;;;;;;5026161;28;20188;-44
2024/01/23 09:45:40;;;;;;;30.80;5.53;;;7.70;99.90;;;;;;5034576;28;20253;-51
2024/01/23 09:48:08;;;;;;;22.03;5.33;;;7.70;99.90;;;;;;5038107;28;20269;-48
2024/01/23 09:50:38;;;;;;;22.83;4.37;;;7.70;99.90;;;;;;5046811;28;20257;-48
2024/01/23 09:53:06;;;;;;;27.63;5.27;;;7.70;99.90;;;;;;5032592;28;20211;-48
2024/01/23 09:55:33;;;;;;;26.07;5.53;;;7.70;99.90;;;;;;5013483;28;20235;-50
2024/01/23 09:58:00;;;;;;;27.53;4.87;;;7.70;99.90;;;;;;5032405;28;20249;-47
2024/01/23 10:00:27;;;;;;;27.37;5.80;;;7.70;99.90;;;;;;5043230;28;20718;-48
2024/01/23 10:02:54;;;;;;;22.23;4.47;;;7.70;99.90;;;;;;5045933;28;20199;-48
2024/01/23 10:05:22;;;;;;;25.27;5.03;;;7.70;99.90;;;;;;5049671;28;20333;-50
2024/01/23 10:07:50;;;;;;;35.07;5.50;;;7.70;99.90;;;;;;5009186;28;20286;-49
2024/01/23 10:10:18;;;;;;;24.33;4.90;;;7.70;99.90;;;;;;5039045;28;20207;-47
2024/01/23 10:12:47;;;;;;;28.13;4.70;;;7.70;99.90;;;;;;5038109;28;20211;-46
2024/01/23 10:15:16;;;;;;;30.73;6.80;;;7.80;99.90;;;;;;5036994;28;20663;-45
2024/01/23 10:17:44;;;;;;;28.60;5.50;;;7.80;99.90;;;;;;5032578;28;20297;-45
2024/01/23 10:20:12;;;;;;;24.10;5.80;;;7.80;99.90;;;;;;5030319;28;20640;-45
2024/01/23 10:22:39;;;;;;;29.53;5.40;;;7.80;99.90;;;;;;5013196;28;20207;-47
2024/01/23 10:25:11;;;;;;;25.47;4.53;;;7.80;99.90;;;;;;5036500;28;20210;-49
2024/01/23 10:27:38;;;;;;;31.87;5.37;;;7.80;99.90;;;;;;5032904;28;20208;-50
2024/01/23 10:30:06;;;;;;;29.43;5.53;;;7.80;99.90;;;;;;5039144;28;20226;-48
2024/01/23 10:32:33;;;;;;;30.60;5.33;;;7.90;99.90;;;;;;5023903;28;20284;-46
2024/01/23 10:35:00;;;;;;;23.30;5.20;;;7.90;99.90;;;;;;5035625;28;20948;-48
2024/01/23 10:37:27;;;;;;;21.57;4.70;;;7.90;99.90;;;;;;5004114;28;20230;-49
2024/01/23 10:39:54;;;;;;;27.50;5.83;;;7.90;99.90;;;;;;5047954;28;20326;-46
2024/01/23 10:42:22;;;;;;;26.20;5.60;;;7.90;99.90;;;;;;5032279;28;21000;-46
2024/01/23 10:44:51;;;;;;;29.00;5.73;;;7.90;99.90;;;;;;5036209;28;20199;-46
2024/01/23 10:47:19;;;;;;;28.50;4.57;;;7.90;99.90;;;;;;5031272;28;20474;-47
2024/01/23 10:49:46;;;;;;;17.70;3.77;;;7.90;99.90;;;;;;5032975;28;20223;-46
2024/01/23 10:52:17;;;;;;;23.57;4.10;;;7.90;99.90;;;;;;5007279;28;20225;-46
2024/01/23 10:54:46;;;;;;;26.87;5.83;;;7.90;99.90;;;;;;5036785;28;20211;-47
2024/01/23 10:57:22;;;;;;;24.63;5.97;;;7.90;99.90;;;;;;5032085;28;20223;-49
2024/01/23 10:59:51;;;;;;;27.87;5.70;;;7.90;99.90;;;;;;5039857;28;20218;-48
2024/01/23 11:02:26;;;;;;;19.20;5.77;;;7.90;99.90;;;;;;5037030;28;20183;-47
2024/01/23 11:04:57;;;;;;;31.53;5.57;;;8.00;99.90;;;;;;5034322;28;20577;-46
2024/01/23 11:07:31;;;;;;;29.27;4.93;;;8.00;99.90;;;;;;5038581;28;20188;-47
2024/01/23 11:10:07;;;;;;;25.87;5.00;;;7.90;99.90;;;;;;5012910;28;20303;-48
2024/01/23 11:12:47;;;;;;;25.30;5.67;;;8.00;99.90;;;;;;5039462;28;20285;-50
2024/01/23 11:15:21;;;;;;;24.40;4.70;;;8.00;99.90;;;;;;5045602;28;20199;-46
2024/01/23 11:17:48;;;;;;;32.40;5.37;;;8.00;99.90;;;;;;5041362;28;20195;-50
2024/01/23 11:20:18;;;;;;;29.27;5.50;;;8.00;99.90;;;;;;5029400;28;20229;-51
2024/01/23 11:22:46;;;;;;;30.57;5.10;;;8.10;99.90;;;;;;5045742;28;20194;-48
2024/01/23 11:25:17;;;;;;;36.27;6.10;;;8.10;99.90;;;;;;5002608;28;20687;-47
2024/01/23 11:27:48;;;;;;;22.13;6.20;;;8.00;99.90;;;;;;5046786;28;20199;-53
2024/01/23 11:30:18;;;;;;;25.70;5.43;;;8.00;99.90;;;;;;5030188;28;20251;-51
2024/01/23 11:32:46;;;;;;;30.60;5.37;;;8.00;99.90;;;;;;5040302;28;20278;-48
2024/01/23 11:35:14;;;;;;;25.80;4.77;;;7.90;99.90;;;;;;5025990;28;20238;-48
2024/01/23 11:37:53;;;;;;;24.87;5.30;;;8.00;99.90;;;;;;5029587;28;20226;-52
2024/01/23 11:40:34;;;;;;;23.27;4.67;;;7.90;99.90;;;;;;5003688;28;20321;-48
2024/01/23 11:43:03;;;;;;;26.60;5.70;;;8.00;99.90;;;;;;5035396;28;20711;-46
2024/01/23 11:45:36;;;;;;;26.27;6.10;;;8.00;99.90;;;;;;5033642;28;21431;-49
2024/01/23 11:48:05;;;;;;;26.07;4.20;;;8.00;99.90;;;;;;5027458;28;20192;-46
2024/01/23 11:50:35;;;;;;;27.93;4.93;;;8.00;99.90;;;;;;5044008;28;20230;-51
2024/01/23 11:53:03;;;;;;;27.93;6.30;;;8.00;99.90;;;;;;5039230;28;20409;-48
2024/01/23 11:55:34;;;;;;;24.03;4.83;;;8.00;99.90;;;;;;5014590;28;20223;-51
2024/01/23 11:58:02;;;;;;;18.23;4.67;;;8.10;99.90;;;;;;5032531;28;20195;-47
2024/01/23 12:00:30;;;;;;;32.33;6.87;;;8.10;99.90;;;;;;5039120;28;20449;-50
2024/01/23 12:02:59;;;;;;;30.77;5.00;;;8.10;99.90;;;;;;5029683;28;20549;-46
2024/01/23 12:05:26;;;;;;;22.13;4.93;;;8.10;99.90;;;;;;5022316;28;20205;-48
2024/01/23 12:07:56;;;;;;;21.53;3.60;;;8.10;99.90;;;;;;5027088;28;20892;-48
2024/01/23 12:10:24;;;;;;;19.77;4.40;;;8.00;99.90;;;;;;5001250;28;21275;-50
2024/01/23 12:12:56;;;;;;;29.10;5.27;;;8.00;99.90;;;;;;5048259;28;20674;-49
2024/01/23 12:15:23;;;;;;;16.70;3.87;;;8.00;99.90;;;;;;5040748;28;20886;-49
2024/01/23 12:17:51;;;;;;;28.07;5.60;;;8.00;99.90;;;;;;5040370;28;20301;-51
2024/01/23 12:20:20;;;;;;;20.83;5.33;;;8.00;99.90;;;;;;5045773;28;20301;-47
2024/01/23 12:22:49;;;;;;;22.17;4.20;;;8.00;99.90;;;;;;5035065;28;20206;-48
2024/01/23 12:25:17;;;;;;;24.00;5.53;;;8.10;99.90;;;;;;5033277;28;20218;-47
2024/01/23 12:27:44;;;;;;;20.10;5.03;;;8.10;99.90;;;;;;5012383;28;20214;-47
2024/01/23 12:30:14;;;;;;;25.77;5.57;;;8.20;99.90;;;;;;5032866;28;20219;-49
2024/01/23 12:32:47;;;;;;;20.23;4.33;;;8.20;99.90;;;;;;5040381;28;20249;-48
2024/01/23 12:35:14;;;;;;;20.67;3.97;;;8.20;99.90;;;;;;5038840;28;20205;-49
2024/01/23 12:37:46;;;;;;;23.67;4.63;;;8.30;99.90;;;;;;5035647;28;20218;-46
2024/01/23 12:40:14;;;;;;;22.57;4.73;;;8.20;99.90;;;;;;5036103;28;20227;-46
2024/01/23 12:42:43;;;;;;;23.57;4.20;;;8.20;99.90;;;;;;5004219;28;20211;-47
2024/01/23 12:45:12;;;;;;;21.90;4.40;;;8.10;99.90;;;;;;5032213;28;20192;-46
2024/01/23 12:47:40;;;;;;;19.80;3.93;;;8.10;99.90;;;;;;5031532;28;20193;-46
2024/01/23 12:50:17;;;;;;;19.80;4.67;;;8.10;99.90;;;;;;5038878;28;20773;-46